sensor_id;sensor_type;location;lat;lon;timestamp;temperature;humidity
57434;DHT22;43277;52.672;6.984;2023-05-27T00:00:00;8.40;99.90
57434;DHT22;43277;52.672;6.984;2023-05-27T00:02:25;8.40;99.90
57434;DHT22;43277;52.672;6.984;2023-05-27T00:04:51;8.40;99.90
57434;DHT22;43277;52.672;6.984;2023-05-27T00:07:17;8.40;99.90
57434;DHT22;43277;52.672;6.984;2023-05-27T00:09:43;8.40;99.90
57434;DHT22;43277;52.672;6.984;2023-05-27T00:12:08;8.30;99.90
57434;DHT22;43277;52.672;6.984;2023-05-27T00:14:34;8.30;99.90
57434;DHT22;43277;52.672;6.984;2023-05-27T00:17:00;8.20;99.90
57434;DHT22;43277;52.672;6.984;2023-05-27T00:19:27;8.20;99.90
57434;DHT22;43277;52.672;6.984;2023-05-27T00:21:55;8.10;99.90
57434;DHT22;43277;52.672;6.984;2023-05-27T00:24:21;8.10;99.90
57434;DHT22;43277;52.672;6.984;2023-05-27T00:26:46;8.10;99.90
57434;DHT22;43277;52.672;6.984;2023-05-27T00:29:13;8.00;99.90
57434;DHT22;43277;52.672;6.984;2023-05-27T00:31:39;8.00;99.90
57434;DHT22;43277;52.672;6.984;2023-05-27T00:34:04;8.00;99.90
57434;DHT22;43277;52.672;6.984;2023-05-27T00:36:30;7.90;99.90
57434;DHT22;43277;52.672;6.984;2023-05-27T00:38:57;7.90;99.90
57434;DHT22;43277;52.672;6.984;2023-05-27T00:41:23;7.90;99.90
57434;DHT22;43277;52.672;6.984;2023-05-27T00:43:48;7.80;99.90
57434;DHT22;43277;52.672;6.984;2023-05-27T00:46:14;7.90;99.90
57434;DHT22;43277;52.672;6.984;2023-05-27T00:48:40;7.80;99.90
57434;DHT22;43277;52.672;6.984;2023-05-27T00:51:06;7.80;99.90
57434;DHT22;43277;52.672;6.984;2023-05-27T00:53:43;7.70;99.90
57434;DHT22;43277;52.672;6.984;2023-05-27T00:56:10;7.70;99.90
57434;DHT22;43277;52.672;6.984;2023-05-27T00:58:36;7.70;99.90
57434;DHT22;43277;52.672;6.984;2023-05-27T01:01:03;7.70;99.90
57434;DHT22;43277;52.672;6.984;2023-05-27T01:03:30;7.60;99.90
57434;DHT22;43277;52.672;6.984;2023-05-27T01:06:03;7.70;99.90
57434;DHT22;43277;52.672;6.984;2023-05-27T01:09:20;7.60;99.90
57434;DHT22;43277;52.672;6.984;2023-05-27T01:11:55;7.70;99.90
57434;DHT22;43277;52.672;6.984;2023-05-27T01:14:23;7.70;99.90
57434;DHT22;43277;52.672;6.984;2023-05-27T01:16:51;7.70;99.90
57434;DHT22;43277;52.672;6.984;2023-05-27T01:19:33;7.70;99.90
57434;DHT22;43277;52.672;6.984;2023-05-27T01:22:00;7.70;99.90
57434;DHT22;43277;52.672;6.984;2023-05-27T01:24:26;7.80;99.90
57434;DHT22;43277;52.672;6.984;2023-05-27T01:26:52;7.80;99.90
57434;DHT22;43277;52.672;6.984;2023-05-27T01:29:19;7.80;99.90
57434;DHT22;43277;52.672;6.984;2023-05-27T01:31:56;7.90;99.90
57434;DHT22;43277;52.672;6.984;2023-05-27T01:34:28;7.90;99.90
57434;DHT22;43277;52.672;6.984;2023-05-27T01:36:59;8.00;99.90
57434;DHT22;43277;52.672;6.984;2023-05-27T01:39:28;8.10;99.90
57434;DHT22;43277;52.672;6.984;2023-05-27T01:41:55;8.10;99.90
57434;DHT22;43277;52.672;6.984;2023-05-27T01:44:21;8.10;99.90
57434;DHT22;43277;52.672;6.984;2023-05-27T01:46:47;8.20;99.90
57434;DHT22;43277;52.672;6.984;2023-05-27T01:49:13;8.10;99.90
57434;DHT22;43277;52.672;6.984;2023-05-27T01:51:38;8.10;99.90
57434;DHT22;43277;52.672;6.984;2023-05-27T01:54:04;8.10;99.90
57434;DHT22;43277;52.672;6.984;2023-05-27T01:56:30;8.10;99.90
57434;DHT22;43277;52.672;6.984;2023-05-27T01:58:56;8.10;99.90
57434;DHT22;43277;52.672;6.984;2023-05-27T02:01:21;8.10;99.90
57434;DHT22;43277;52.672;6.984;2023-05-27T02:03:48;8.20;99.90
57434;DHT22;43277;52.672;6.984;2023-05-27T02:06:14;8.20;99.90
57434;DHT22;43277;52.672;6.984;2023-05-27T02:08:39;8.30;99.90
57434;DHT22;43277;52.672;6.984;2023-05-27T02:11:05;8.30;99.90
57434;DHT22;43277;52.672;6.984;2023-05-27T02:13:31;8.40;99.90
57434;DHT22;43277;52.672;6.984;2023-05-27T02:15:56;8.40;99.90
57434;DHT22;43277;52.672;6.984;2023-05-27T02:18:22;8.50;99.90
57434;DHT22;43277;52.672;6.984;2023-05-27T02:20:48;8.50;99.90
57434;DHT22;43277;52.672;6.984;2023-05-27T02:23:13;8.60;99.90
57434;DHT22;43277;52.672;6.984;2023-05-27T02:25:39;8.60;99.90
57434;DHT22;43277;52.672;6.984;2023-05-27T02:28:04;8.70;99.90
57434;DHT22;43277;52.672;6.984;2023-05-27T02:30:30;8.70;99.90
57434;DHT22;43277;52.672;6.984;2023-05-27T02:32:57;8.80;99.90
57434;DHT22;43277;52.672;6.984;2023-05-27T02:35:22;8.80;99.90
57434;DHT22;43277;52.672;6.984;2023-05-27T02:37:48;8.80;99.90
57434;DHT22;43277;52.672;6.984;2023-05-27T02:40:27;8.90;99.90
57434;DHT22;43277;52.672;6.984;2023-05-27T02:42:53;8.90;99.90
57434;DHT22;43277;52.672;6.984;2023-05-27T02:45:18;8.90;99.90
57434;DHT22;43277;52.672;6.984;2023-05-27T02:47:44;8.90;99.90
57434;DHT22;43277;52.672;6.984;2023-05-27T02:50:10;8.80;99.90
57434;DHT22;43277;52.672;6.984;2023-05-27T02:52:35;8.70;99.90
57434;DHT22;43277;52.672;6.984;2023-05-27T02:55:01;8.70;99.90
57434;DHT22;43277;52.672;6.984;2023-05-27T02:57:27;8.70;99.90
57434;DHT22;43277;52.672;6.984;2023-05-27T02:59:52;8.70;99.90
57434;DHT22;43277;52.672;6.984;2023-05-27T03:02:18;8.70;99.90
57434;DHT22;43277;52.672;6.984;2023-05-27T03:04:43;8.70;99.90
57434;DHT22;43277;52.672;6.984;2023-05-27T03:07:10;8.70;99.90
57434;DHT22;43277;52.672;6.984;2023-05-27T03:09:35;8.70;99.90
57434;DHT22;43277;52.672;6.984;2023-05-27T03:12:01;8.70;99.90
57434;DHT22;43277;52.672;6.984;2023-05-27T03:14:27;8.60;99.90
57434;DHT22;43277;52.672;6.984;2023-05-27T03:16:53;8.70;99.90
57434;DHT22;43277;52.672;6.984;2023-05-27T03:19:21;8.70;99.90
57434;DHT22;43277;52.672;6.984;2023-05-27T03:21:47;8.70;99.90
57434;DHT22;43277;52.672;6.984;2023-05-27T03:24:13;8.70;99.90
57434;DHT22;43277;52.672;6.984;2023-05-27T03:26:39;8.70;99.90
57434;DHT22;43277;52.672;6.984;2023-05-27T03:29:05;8.70;99.90
57434;DHT22;43277;52.672;6.984;2023-05-27T03:31:31;8.70;99.90
57434;DHT22;43277;52.672;6.984;2023-05-27T03:33:56;8.70;99.90
57434;DHT22;43277;52.672;6.984;2023-05-27T03:36:22;8.70;99.90
57434;DHT22;43277;52.672;6.984;2023-05-27T03:38:47;8.70;99.90
57434;DHT22;43277;52.672;6.984;2023-05-27T03:41:13;8.70;99.90
57434;DHT22;43277;52.672;6.984;2023-05-27T03:43:39;8.70;99.90
57434;DHT22;43277;52.672;6.984;2023-05-27T03:46:06;8.70;99.90
57434;DHT22;43277;52.672;6.984;2023-05-27T03:48:32;8.70;99.90
57434;DHT22;43277;52.672;6.984;2023-05-27T03:50:58;8.70;99.90
57434;DHT22;43277;52.672;6.984;2023-05-27T03:53:24;8.70;99.90
57434;DHT22;43277;52.672;6.984;2023-05-27T03:55:50;8.70;99.90
57434;DHT22;43277;52.672;6.984;2023-05-27T03:58:15;8.70;99.90
57434;DHT22;43277;52.672;6.984;2023-05-27T04:00:42;8.70;99.90
57434;DHT22;43277;52.672;6.984;2023-05-27T04:03:08;8.60;99.90
57434;DHT22;43277;52.672;6.984;2023-05-27T04:05:34;8.60;99.90
57434;DHT22;43277;52.672;6.984;2023-05-27T04:08:02;8.50;99.90
57434;DHT22;43277;52.672;6.984;2023-05-27T04:10:27;8.60;99.90
57434;DHT22;43277;52.672;6.984;2023-05-27T04:12:55;8.50;99.90
57434;DHT22;43277;52.672;6.984;2023-05-27T04:15:21;8.50;99.90
57434;DHT22;43277;52.672;6.984;2023-05-27T04:17:46;8.60;99.90
57434;DHT22;43277;52.672;6.984;2023-05-27T04:20:12;8.50;99.90
57434;DHT22;43277;52.672;6.984;2023-05-27T04:22:42;8.50;99.90
57434;DHT22;43277;52.672;6.984;2023-05-27T04:25:08;8.50;99.90
57434;DHT22;43277;52.672;6.984;2023-05-27T04:27:34;8.50;99.90
57434;DHT22;43277;52.672;6.984;2023-05-27T04:30:00;8.50;99.90
57434;DHT22;43277;52.672;6.984;2023-05-27T04:32:26;8.50;99.90
57434;DHT22;43277;52.672;6.984;2023-05-27T04:34:53;8.50;99.90
57434;DHT22;43277;52.672;6.984;2023-05-27T04:37:19;8.50;99.90
57434;DHT22;43277;52.672;6.984;2023-05-27T04:39:45;8.60;99.90
57434;DHT22;43277;52.672;6.984;2023-05-27T04:42:12;8.60;99.90
57434;DHT22;43277;52.672;6.984;2023-05-27T04:44:38;8.60;99.90
57434;DHT22;43277;52.672;6.984;2023-05-27T04:47:05;8.60;99.90
57434;DHT22;43277;52.672;6.984;2023-05-27T04:49:31;8.60;99.90
57434;DHT22;43277;52.672;6.984;2023-05-27T04:51:57;8.60;99.90
57434;DHT22;43277;52.672;6.984;2023-05-27T04:54:23;8.60;99.90
57434;DHT22;43277;52.672;6.984;2023-05-27T04:56:49;8.70;99.90
57434;DHT22;43277;52.672;6.984;2023-05-27T04:59:18;8.80;99.90
57434;DHT22;43277;52.672;6.984;2023-05-27T05:01:46;8.70;99.90
57434;DHT22;43277;52.672;6.984;2023-05-27T05:04:34;8.80;99.90
57434;DHT22;43277;52.672;6.984;2023-05-27T05:06:59;8.80;99.90
57434;DHT22;43277;52.672;6.984;2023-05-27T05:09:25;9.00;99.90
57434;DHT22;43277;52.672;6.984;2023-05-27T05:11:51;8.90;99.90
57434;DHT22;43277;52.672;6.984;2023-05-27T05:14:16;9.00;99.90
57434;DHT22;43277;52.672;6.984;2023-05-27T05:16:42;9.10;99.90
57434;DHT22;43277;52.672;6.984;2023-05-27T05:19:07;9.10;99.90
57434;DHT22;43277;52.672;6.984;2023-05-27T05:21:33;9.20;99.90
57434;DHT22;43277;52.672;6.984;2023-05-27T05:23:58;9.30;99.90
57434;DHT22;43277;52.672;6.984;2023-05-27T05:26:24;9.40;99.90
57434;DHT22;43277;52.672;6.984;2023-05-27T05:28:51;9.40;99.90
57434;DHT22;43277;52.672;6.984;2023-05-27T05:31:16;9.50;99.90
57434;DHT22;43277;52.672;6.984;2023-05-27T05:33:42;9.60;99.90
57434;DHT22;43277;52.672;6.984;2023-05-27T05:36:08;9.70;99.90
57434;DHT22;43277;52.672;6.984;2023-05-27T05:38:33;9.80;99.90
57434;DHT22;43277;52.672;6.984;2023-05-27T05:41:00;9.80;99.90
57434;DHT22;43277;52.672;6.984;2023-05-27T05:43:25;10.00;99.90
57434;DHT22;43277;52.672;6.984;2023-05-27T05:45:51;10.10;99.90
57434;DHT22;43277;52.672;6.984;2023-05-27T05:48:17;10.30;99.90
57434;DHT22;43277;52.672;6.984;2023-05-27T05:50:42;10.30;99.90
57434;DHT22;43277;52.672;6.984;2023-05-27T05:53:09;10.40;99.90
57434;DHT22;43277;52.672;6.984;2023-05-27T05:55:35;10.60;99.90
57434;DHT22;43277;52.672;6.984;2023-05-27T05:58:01;10.60;99.90
57434;DHT22;43277;52.672;6.984;2023-05-27T06:00:26;10.70;99.90
57434;DHT22;43277;52.672;6.984;2023-05-27T06:02:52;10.80;99.90
57434;DHT22;43277;52.672;6.984;2023-05-27T06:05:18;10.90;99.90
57434;DHT22;43277;52.672;6.984;2023-05-27T06:07:44;11.00;99.90
57434;DHT22;43277;52.672;6.984;2023-05-27T06:10:10;11.10;99.90
57434;DHT22;43277;52.672;6.984;2023-05-27T06:12:37;11.20;99.90
57434;DHT22;43277;52.672;6.984;2023-05-27T06:15:03;11.40;99.90
57434;DHT22;43277;52.672;6.984;2023-05-27T06:17:29;11.50;99.90
57434;DHT22;43277;52.672;6.984;2023-05-27T06:19:54;11.60;99.90
57434;DHT22;43277;52.672;6.984;2023-05-27T06:22:20;11.70;99.90
57434;DHT22;43277;52.672;6.984;2023-05-27T06:24:45;11.80;99.90
57434;DHT22;43277;52.672;6.984;2023-05-27T06:27:11;11.90;99.90
57434;DHT22;43277;52.672;6.984;2023-05-27T06:29:37;12.10;99.90
57434;DHT22;43277;52.672;6.984;2023-05-27T06:32:02;12.10;99.90
57434;DHT22;43277;52.672;6.984;2023-05-27T06:34:28;12.20;99.90
57434;DHT22;43277;52.672;6.984;2023-05-27T06:36:54;12.30;99.90
57434;DHT22;43277;52.672;6.984;2023-05-27T06:39:19;12.40;99.90
57434;DHT22;43277;52.672;6.984;2023-05-27T06:41:45;12.50;99.90
57434;DHT22;43277;52.672;6.984;2023-05-27T06:44:10;12.60;99.90
57434;DHT22;43277;52.672;6.984;2023-05-27T06:46:36;12.70;99.90
57434;DHT22;43277;52.672;6.984;2023-05-27T06:49:02;12.80;99.90
57434;DHT22;43277;52.672;6.984;2023-05-27T06:51:28;12.90;99.90
57434;DHT22;43277;52.672;6.984;2023-05-27T06:53:54;13.00;99.90
57434;DHT22;43277;52.672;6.984;2023-05-27T06:56:19;13.10;99.90
57434;DHT22;43277;52.672;6.984;2023-05-27T06:58:45;13.20;99.90
57434;DHT22;43277;52.672;6.984;2023-05-27T07:01:11;13.30;99.90
57434;DHT22;43277;52.672;6.984;2023-05-27T07:03:37;13.40;99.90
57434;DHT22;43277;52.672;6.984;2023-05-27T07:06:02;13.50;99.90
57434;DHT22;43277;52.672;6.984;2023-05-27T07:08:28;13.60;99.90
57434;DHT22;43277;52.672;6.984;2023-05-27T07:10:54;13.80;99.90
57434;DHT22;43277;52.672;6.984;2023-05-27T07:13:19;13.90;99.90
57434;DHT22;43277;52.672;6.984;2023-05-27T07:15:45;14.00;99.90
57434;DHT22;43277;52.672;6.984;2023-05-27T07:18:10;14.00;99.90
57434;DHT22;43277;52.672;6.984;2023-05-27T07:20:36;14.20;99.90
57434;DHT22;43277;52.672;6.984;2023-05-27T07:23:02;14.20;99.90
57434;DHT22;43277;52.672;6.984;2023-05-27T07:25:27;14.40;99.90
57434;DHT22;43277;52.672;6.984;2023-05-27T07:27:53;14.50;99.90
57434;DHT22;43277;52.672;6.984;2023-05-27T07:30:18;14.50;99.90
57434;DHT22;43277;52.672;6.984;2023-05-27T07:32:45;14.70;99.90
57434;DHT22;43277;52.672;6.984;2023-05-27T07:35:11;14.80;99.90
57434;DHT22;43277;52.672;6.984;2023-05-27T07:37:36;15.00;99.90
57434;DHT22;43277;52.672;6.984;2023-05-27T07:40:02;15.10;99.90
57434;DHT22;43277;52.672;6.984;2023-05-27T07:42:29;15.20;99.90
57434;DHT22;43277;52.672;6.984;2023-05-27T07:44:54;15.30;99.90
57434;DHT22;43277;52.672;6.984;2023-05-27T07:47:20;15.50;99.90
57434;DHT22;43277;52.672;6.984;2023-05-27T07:49:49;15.60;99.90
57434;DHT22;43277;52.672;6.984;2023-05-27T07:52:15;15.70;99.90
57434;DHT22;43277;52.672;6.984;2023-05-27T07:54:40;15.80;99.90
57434;DHT22;43277;52.672;6.984;2023-05-27T07:57:06;15.80;99.90
57434;DHT22;43277;52.672;6.984;2023-05-27T07:59:32;15.60;99.90
57434;DHT22;43277;52.672;6.984;2023-05-27T08:01:57;15.60;99.90
57434;DHT22;43277;52.672;6.984;2023-05-27T08:04:23;15.60;99.90
57434;DHT22;43277;52.672;6.984;2023-05-27T08:06:49;15.40;99.90
57434;DHT22;43277;52.672;6.984;2023-05-27T08:09:15;15.30;99.90
57434;DHT22;43277;52.672;6.984;2023-05-27T08:11:41;15.10;99.90
57434;DHT22;43277;52.672;6.984;2023-05-27T08:14:06;15.20;99.90
57434;DHT22;43277;52.672;6.984;2023-05-27T08:16:32;15.20;99.90
57434;DHT22;43277;52.672;6.984;2023-05-27T08:18:58;15.30;99.90
57434;DHT22;43277;52.672;6.984;2023-05-27T08:21:23;15.50;99.90
57434;DHT22;43277;52.672;6.984;2023-05-27T08:23:49;15.60;99.90
57434;DHT22;43277;52.672;6.984;2023-05-27T08:26:15;15.80;99.90
57434;DHT22;43277;52.672;6.984;2023-05-27T08:28:41;16.00;99.90
57434;DHT22;43277;52.672;6.984;2023-05-27T08:31:07;16.30;99.90
57434;DHT22;43277;52.672;6.984;2023-05-27T08:33:32;16.50;99.90
57434;DHT22;43277;52.672;6.984;2023-05-27T08:35:58;16.70;99.90
57434;DHT22;43277;52.672;6.984;2023-05-27T08:38:24;16.90;99.90
57434;DHT22;43277;52.672;6.984;2023-05-27T08:40:49;17.10;99.90
57434;DHT22;43277;52.672;6.984;2023-05-27T08:43:15;17.20;99.90
57434;DHT22;43277;52.672;6.984;2023-05-27T08:45:41;17.30;99.90
57434;DHT22;43277;52.672;6.984;2023-05-27T08:48:09;17.40;99.90
57434;DHT22;43277;52.672;6.984;2023-05-27T08:50:36;17.40;99.90
57434;DHT22;43277;52.672;6.984;2023-05-27T08:53:02;17.50;99.90
57434;DHT22;43277;52.672;6.984;2023-05-27T08:55:29;17.50;99.90
57434;DHT22;43277;52.672;6.984;2023-05-27T08:57:57;17.50;99.90
57434;DHT22;43277;52.672;6.984;2023-05-27T09:00:25;17.60;99.90
57434;DHT22;43277;52.672;6.984;2023-05-27T09:02:51;17.80;99.90
57434;DHT22;43277;52.672;6.984;2023-05-27T09:05:18;17.90;99.90
57434;DHT22;43277;52.672;6.984;2023-05-27T09:07:47;18.10;99.80
57434;DHT22;43277;52.672;6.984;2023-05-27T09:10:13;18.20;99.50
57434;DHT22;43277;52.672;6.984;2023-05-27T09:12:43;18.30;99.90
57434;DHT22;43277;52.672;6.984;2023-05-27T09:15:11;18.40;99.90
57434;DHT22;43277;52.672;6.984;2023-05-27T09:17:44;18.60;99.70
57434;DHT22;43277;52.672;6.984;2023-05-27T09:20:10;18.70;98.50
57434;DHT22;43277;52.672;6.984;2023-05-27T09:22:38;18.80;98.00
57434;DHT22;43277;52.672;6.984;2023-05-27T09:25:04;18.90;99.90
57434;DHT22;43277;52.672;6.984;2023-05-27T09:27:31;19.00;97.80
57434;DHT22;43277;52.672;6.984;2023-05-27T09:29:58;19.00;97.00
57434;DHT22;43277;52.672;6.984;2023-05-27T09:32:32;19.10;97.60
57434;DHT22;43277;52.672;6.984;2023-05-27T09:34:59;19.20;97.60
57434;DHT22;43277;52.672;6.984;2023-05-27T09:37:26;19.20;96.80
57434;DHT22;43277;52.672;6.984;2023-05-27T09:39:58;19.30;96.10
57434;DHT22;43277;52.672;6.984;2023-05-27T09:42:23;19.50;96.30
57434;DHT22;43277;52.672;6.984;2023-05-27T09:44:49;19.70;96.60
57434;DHT22;43277;52.672;6.984;2023-05-27T09:47:16;19.90;97.00
57434;DHT22;43277;52.672;6.984;2023-05-27T09:49:43;20.10;96.30
57434;DHT22;43277;52.672;6.984;2023-05-27T09:52:11;20.40;94.10
57434;DHT22;43277;52.672;6.984;2023-05-27T09:54:37;20.40;93.30
57434;DHT22;43277;52.672;6.984;2023-05-27T09:57:04;20.50;92.70
57434;DHT22;43277;52.672;6.984;2023-05-27T09:59:32;20.50;92.00
57434;DHT22;43277;52.672;6.984;2023-05-27T10:02:00;20.60;92.80
57434;DHT22;43277;52.672;6.984;2023-05-27T10:04:26;20.70;92.70
57434;DHT22;43277;52.672;6.984;2023-05-27T10:06:53;20.80;90.90
57434;DHT22;43277;52.672;6.984;2023-05-27T10:09:19;21.00;89.30
57434;DHT22;43277;52.672;6.984;2023-05-27T10:11:45;21.00;89.30
57434;DHT22;43277;52.672;6.984;2023-05-27T10:14:11;21.00;89.10
57434;DHT22;43277;52.672;6.984;2023-05-27T10:16:37;21.10;89.80
57434;DHT22;43277;52.672;6.984;2023-05-27T10:19:10;21.20;88.00
57434;DHT22;43277;52.672;6.984;2023-05-27T10:21:42;21.30;85.60
57434;DHT22;43277;52.672;6.984;2023-05-27T10:24:10;21.20;88.70
57434;DHT22;43277;52.672;6.984;2023-05-27T10:26:44;21.40;87.30
57434;DHT22;43277;52.672;6.984;2023-05-27T10:29:15;21.40;80.70
57434;DHT22;43277;52.672;6.984;2023-05-27T10:31:45;21.20;86.30
57434;DHT22;43277;52.672;6.984;2023-05-27T10:34:12;21.40;90.60
57434;DHT22;43277;52.672;6.984;2023-05-27T10:36:38;21.50;87.80
57434;DHT22;43277;52.672;6.984;2023-05-27T10:39:05;21.80;82.90
57434;DHT22;43277;52.672;6.984;2023-05-27T10:41:51;21.90;82.50
57434;DHT22;43277;52.672;6.984;2023-05-27T10:44:38;22.10;81.50
57434;DHT22;43277;52.672;6.984;2023-05-27T10:47:11;22.20;83.30
57434;DHT22;43277;52.672;6.984;2023-05-27T10:49:39;22.20;82.40
57434;DHT22;43277;52.672;6.984;2023-05-27T10:52:09;22.30;77.10
57434;DHT22;43277;52.672;6.984;2023-05-27T10:54:38;22.20;80.30
57434;DHT22;43277;52.672;6.984;2023-05-27T10:57:06;22.30;76.40
57434;DHT22;43277;52.672;6.984;2023-05-27T10:59:47;22.30;72.10
57434;DHT22;43277;52.672;6.984;2023-05-27T11:02:13;22.00;74.80
57434;DHT22;43277;52.672;6.984;2023-05-27T11:04:39;21.90;74.00
57434;DHT22;43277;52.672;6.984;2023-05-27T11:07:05;21.80;77.20
57434;DHT22;43277;52.672;6.984;2023-05-27T11:09:45;21.90;80.80
57434;DHT22;43277;52.672;6.984;2023-05-27T11:12:15;22.20;77.70
57434;DHT22;43277;52.672;6.984;2023-05-27T11:14:46;22.40;77.00
57434;DHT22;43277;52.672;6.984;2023-05-27T11:17:12;22.60;76.90
57434;DHT22;43277;52.672;6.984;2023-05-27T11:19:39;22.80;73.60
57434;DHT22;43277;52.672;6.984;2023-05-27T11:22:09;23.00;75.50
57434;DHT22;43277;52.672;6.984;2023-05-27T11:24:37;23.30;75.50
57434;DHT22;43277;52.672;6.984;2023-05-27T11:27:10;23.50;74.30
57434;DHT22;43277;52.672;6.984;2023-05-27T11:29:40;23.70;71.20
57434;DHT22;43277;52.672;6.984;2023-05-27T11:32:16;23.80;69.40
57434;DHT22;43277;52.672;6.984;2023-05-27T11:34:43;23.90;70.60
57434;DHT22;43277;52.672;6.984;2023-05-27T11:37:10;24.00;69.30
57434;DHT22;43277;52.672;6.984;2023-05-27T11:39:36;24.10;68.20
57434;DHT22;43277;52.672;6.984;2023-05-27T11:42:05;24.30;67.90
57434;DHT22;43277;52.672;6.984;2023-05-27T11:44:32;24.40;66.10
57434;DHT22;43277;52.672;6.984;2023-05-27T11:46:58;24.60;66.90
57434;DHT22;43277;52.672;6.984;2023-05-27T11:49:28;24.70;67.80
57434;DHT22;43277;52.672;6.984;2023-05-27T11:51:57;24.90;67.80
57434;DHT22;43277;52.672;6.984;2023-05-27T11:54:28;25.10;68.10
57434;DHT22;43277;52.672;6.984;2023-05-27T11:56:56;25.30;66.30
57434;DHT22;43277;52.672;6.984;2023-05-27T11:59:23;25.40;64.00
57434;DHT22;43277;52.672;6.984;2023-05-27T12:01:49;25.50;61.20
57434;DHT22;43277;52.672;6.984;2023-05-27T12:04:17;25.50;63.70
57434;DHT22;43277;52.672;6.984;2023-05-27T12:06:44;25.60;63.00
57434;DHT22;43277;52.672;6.984;2023-05-27T12:09:10;25.70;61.60
57434;DHT22;43277;52.672;6.984;2023-05-27T12:11:36;25.70;60.80
57434;DHT22;43277;52.672;6.984;2023-05-27T12:14:02;25.70;60.70
57434;DHT22;43277;52.672;6.984;2023-05-27T12:16:28;25.90;61.10
57434;DHT22;43277;52.672;6.984;2023-05-27T12:18:54;26.00;59.40
57434;DHT22;43277;52.672;6.984;2023-05-27T12:21:20;26.20;57.00
57434;DHT22;43277;52.672;6.984;2023-05-27T12:23:47;26.20;60.00
57434;DHT22;43277;52.672;6.984;2023-05-27T12:26:13;26.40;58.40
57434;DHT22;43277;52.672;6.984;2023-05-27T12:28:40;26.60;57.60
57434;DHT22;43277;52.672;6.984;2023-05-27T12:31:06;26.60;54.20
57434;DHT22;43277;52.672;6.984;2023-05-27T12:33:32;26.50;54.50
57434;DHT22;43277;52.672;6.984;2023-05-27T12:35:58;26.30;56.00
57434;DHT22;43277;52.672;6.984;2023-05-27T12:38:24;26.30;54.60
57434;DHT22;43277;52.672;6.984;2023-05-27T12:40:50;26.20;52.10
57434;DHT22;43277;52.672;6.984;2023-05-27T12:43:17;25.90;55.00
57434;DHT22;43277;52.672;6.984;2023-05-27T12:45:43;25.90;55.20
57434;DHT22;43277;52.672;6.984;2023-05-27T12:48:10;26.00;56.90
57434;DHT22;43277;52.672;6.984;2023-05-27T12:50:36;26.20;56.70
57434;DHT22;43277;52.672;6.984;2023-05-27T12:53:02;26.30;56.20
57434;DHT22;43277;52.672;6.984;2023-05-27T12:55:28;26.50;55.50
57434;DHT22;43277;52.672;6.984;2023-05-27T12:57:54;26.40;55.90
57434;DHT22;43277;52.672;6.984;2023-05-27T13:00:20;26.40;54.60
57434;DHT22;43277;52.672;6.984;2023-05-27T13:02:46;26.40;55.90
57434;DHT22;43277;52.672;6.984;2023-05-27T13:05:15;26.60;57.30
57434;DHT22;43277;52.672;6.984;2023-05-27T13:08:01;26.90;57.00
57434;DHT22;43277;52.672;6.984;2023-05-27T13:10:28;27.10;55.40
57434;DHT22;43277;52.672;6.984;2023-05-27T13:12:53;27.10;53.10
57434;DHT22;43277;52.672;6.984;2023-05-27T13:15:19;27.20;51.60
57434;DHT22;43277;52.672;6.984;2023-05-27T13:17:46;27.20;52.80
57434;DHT22;43277;52.672;6.984;2023-05-27T13:20:13;27.30;52.80
57434;DHT22;43277;52.672;6.984;2023-05-27T13:22:41;27.40;52.00
57434;DHT22;43277;52.672;6.984;2023-05-27T13:25:07;27.50;51.90
57434;DHT22;43277;52.672;6.984;2023-05-27T13:27:33;27.60;52.20
57434;DHT22;43277;52.672;6.984;2023-05-27T13:29:59;27.70;52.40
57434;DHT22;43277;52.672;6.984;2023-05-27T13:32:24;27.70;52.40
57434;DHT22;43277;52.672;6.984;2023-05-27T13:34:51;27.80;52.20
57434;DHT22;43277;52.672;6.984;2023-05-27T13:37:17;27.80;51.90
57434;DHT22;43277;52.672;6.984;2023-05-27T13:39:43;27.90;51.90
57434;DHT22;43277;52.672;6.984;2023-05-27T13:42:12;28.00;50.50
57434;DHT22;43277;52.672;6.984;2023-05-27T13:44:38;28.00;50.40
57434;DHT22;43277;52.672;6.984;2023-05-27T13:47:04;28.10;50.40
57434;DHT22;43277;52.672;6.984;2023-05-27T13:49:29;28.00;49.50
57434;DHT22;43277;52.672;6.984;2023-05-27T13:51:56;28.00;49.10
57434;DHT22;43277;52.672;6.984;2023-05-27T13:54:21;28.00;47.80
57434;DHT22;43277;52.672;6.984;2023-05-27T13:56:47;28.10;48.80
57434;DHT22;43277;52.672;6.984;2023-05-27T13:59:13;28.20;49.80
57434;DHT22;43277;52.672;6.984;2023-05-27T14:01:39;28.30;48.90
57434;DHT22;43277;52.672;6.984;2023-05-27T14:04:06;28.20;48.20
57434;DHT22;43277;52.672;6.984;2023-05-27T14:06:32;28.20;48.50
57434;DHT22;43277;52.672;6.984;2023-05-27T14:08:58;28.20;48.20
57434;DHT22;43277;52.672;6.984;2023-05-27T14:11:23;28.20;48.70
57434;DHT22;43277;52.672;6.984;2023-05-27T14:13:52;28.30;49.00
57434;DHT22;43277;52.672;6.984;2023-05-27T14:16:18;28.30;48.80
57434;DHT22;43277;52.672;6.984;2023-05-27T14:18:47;28.30;48.70
57434;DHT22;43277;52.672;6.984;2023-05-27T14:21:13;28.40;48.80
57434;DHT22;43277;52.672;6.984;2023-05-27T14:23:39;28.50;47.30
57434;DHT22;43277;52.672;6.984;2023-05-27T14:26:04;28.40;48.10
57434;DHT22;43277;52.672;6.984;2023-05-27T14:28:32;28.40;49.20
57434;DHT22;43277;52.672;6.984;2023-05-27T14:30:59;28.50;48.30
57434;DHT22;43277;52.672;6.984;2023-05-27T14:33:28;28.60;48.20
57434;DHT22;43277;52.672;6.984;2023-05-27T14:35:53;28.60;47.70
57434;DHT22;43277;52.672;6.984;2023-05-27T14:38:19;28.60;46.90
57434;DHT22;43277;52.672;6.984;2023-05-27T14:40:49;28.60;47.30
57434;DHT22;43277;52.672;6.984;2023-05-27T14:43:16;28.50;47.60
57434;DHT22;43277;52.672;6.984;2023-05-27T14:45:42;28.60;48.10
57434;DHT22;43277;52.672;6.984;2023-05-27T14:48:07;28.60;47.30
57434;DHT22;43277;52.672;6.984;2023-05-27T14:50:33;28.70;47.20
57434;DHT22;43277;52.672;6.984;2023-05-27T14:52:59;28.70;47.20
57434;DHT22;43277;52.672;6.984;2023-05-27T14:55:26;28.80;46.80
57434;DHT22;43277;52.672;6.984;2023-05-27T14:57:51;28.80;47.60
57434;DHT22;43277;52.672;6.984;2023-05-27T15:00:17;28.70;46.50
57434;DHT22;43277;52.672;6.984;2023-05-27T15:02:43;28.80;46.90
57434;DHT22;43277;52.672;6.984;2023-05-27T15:05:09;28.80;47.80
57434;DHT22;43277;52.672;6.984;2023-05-27T15:07:36;28.80;47.60
57434;DHT22;43277;52.672;6.984;2023-05-27T15:10:06;28.80;47.40
57434;DHT22;43277;52.672;6.984;2023-05-27T15:12:45;28.90;47.30
57434;DHT22;43277;52.672;6.984;2023-05-27T15:15:20;28.90;47.30
57434;DHT22;43277;52.672;6.984;2023-05-27T15:17:48;28.90;46.20
57434;DHT22;43277;52.672;6.984;2023-05-27T15:20:16;28.90;45.80
57434;DHT22;43277;52.672;6.984;2023-05-27T15:22:45;28.90;46.00
57434;DHT22;43277;52.672;6.984;2023-05-27T15:25:11;28.80;44.90
57434;DHT22;43277;52.672;6.984;2023-05-27T15:27:37;28.70;45.00
57434;DHT22;43277;52.672;6.984;2023-05-27T15:30:03;28.70;45.80
57434;DHT22;43277;52.672;6.984;2023-05-27T15:32:30;28.70;46.70
57434;DHT22;43277;52.672;6.984;2023-05-27T15:34:56;28.70;46.10